X  Schlie├čen METAR Luftfahrt Wetterdaten     LOWW Vienna International Airport
Temperatur
70°F Temperatur
50°F Taupunkt
50% Feuchtigkeit



Wind
21 MPS
34 km/h
9 M/S
18 KTS



280°
W
Aktuelle Wetterlage

Klar Klar
Luftdruck 1018.92 (hPa) - 30.09 (inHg)
Sichtweite 6.2 (Meile) - 10 (Km)
Flughafen
Flughafen Code LOWW

Position : Vienna International Airport
Entfernung: 58 (mi)

Metar:
LOWW 071550Z 28018KT CAVOK 21/10 Q1019 NOSIG

Zeit: 07-07-2022 17:50 CEST